Flight Track Log - Related Links

Times and Time Zones

All times are in EDT time to prevent confusion due to time zone crossing. See the SWA1263 flight status page for this flight to view local times or setup timezone preferences in your user account.

Time Position Orientation Groundspeed Altitude Reporting Facility
EDT Latitude Longitude Course Direction KTS MPH feet Rate Location/Type
Tue 10:45:11 AM 29.6303 -95.2561 12° North 159 183 1,300  Level Houston Center
Tue 10:46:12 AM 29.6856 -95.2422 12° North 276 318 3,300 2,281 Climbing Houston Center
Tue 10:47:12 AM 29.7475 -95.2636 343° North 263 303 5,900 2,656 Climbing Houston Center
Tue 10:48:14 AM 29.8250 -95.3003 338° Northwest 294 338 8,700 2,468 Climbing Houston Center
Tue 10:49:16 AM 29.9111 -95.3058 357° North 320 368 11,000 2,226 Climbing Houston Center
Tue 10:50:18 AM 30.0289 -95.2756 13° North 355 409 13,300 2,274 Climbing Houston Center
Tue 10:51:20 AM 30.1325 -95.2328 20° North 386 444 15,700 2,371 Climbing Houston Center
Tue 10:52:22 AM 30.2342 -95.1817 23° Northeast 395 455 18,200 2,226 Climbing Houston Center
Tue 10:53:24 AM 30.3392 -95.1308 23° Northeast 405 466 20,300 2,177 Climbing Houston Center
Tue 10:54:26 AM 30.4561 -95.0714 24° Northeast 410 472 22,700 1,824 Climbing Houston Center
Tue 10:55:29 AM 30.5653 -95.0167 23° Northeast 420 483 24,100 1,344 Climbing Houston Center
Tue 10:56:31 AM 30.6772 -94.9614 23° Northeast 435 501 25,500 1,355 Climbing Houston Center
Tue 10:57:33 AM 30.7939 -94.9028 23° Northeast 451 519 26,900 1,355 Climbing Houston Center
Tue 10:58:35 AM 30.9375 -94.8303 23° Northeast 469 540 28,300 1,355 Climbing Houston Center
Tue 10:59:37 AM 31.0581 -94.7697 23° Northeast 473 544 29,700 1,403 Climbing Houston Center
Tue 11:00:39 AM 31.1828 -94.7044 24° Northeast 473 544 31,200 1,306 Climbing Houston Center
Tue 11:01:41 AM 31.2856 -94.6308 31° Northeast 477 549 32,400 1,296 Climbing Houston Center
Tue 11:02:44 AM 31.4208 -94.5389 30° Northeast 474 545 33,900 1,152 Climbing Houston Center
Tue 11:03:46 AM 31.5344 -94.4608 30° Northeast 474 545 34,800 532 Climbing Houston Center
Tue 11:04:48 AM 31.6486 -94.3811 31° Northeast 477 549 35,000 532 Climbing Houston Center
Tue 11:05:50 AM 31.7614 -94.3019 31° Northeast 474 545 35,900 814 Climbing Houston Center
Tue 11:06:46 AM 31.8806 -94.2208 30° Northeast 477 549 36,600 569 Climbing Fort Worth Center
Tue 11:07:46 AM 31.9933 -94.1408 31° Northeast 477 549 37,000 200 Climbing Fort Worth Center
Tue 11:08:46 AM 32.1083 -94.0681 28° Northeast 472 543 37,000  Level Fort Worth Center
Tue 11:09:46 AM 32.2156 -94.0125 24° Northeast 462 532 37,000  Level Fort Worth Center
Tue 11:10:46 AM 32.3350 -93.9517 23° Northeast 462 532 37,000  Level Fort Worth Center
Tue 11:11:46 AM 32.4564 -93.8928 22° Northeast 457 526 37,000  Level Fort Worth Center
Tue 11:12:46 AM 32.5758 -93.8364 22° Northeast 457 526 37,000  Level Fort Worth Center
Tue 11:13:46 AM 32.6911 -93.7750 24° Northeast 457 526 37,000  Level Fort Worth Center
Tue 11:14:46 AM 32.8128 -93.7256 19° North 457 526 37,000  Level Fort Worth Center
Tue 11:15:46 AM 32.9342 -93.6686 21° North 457 526 37,000  Level Fort Worth Center
Tue 11:16:46 AM 33.0558 -93.6139 21° North 457 526 37,000  Level Fort Worth Center
Tue 11:17:46 AM 33.1750 -93.5592 21° North 462 532 37,000  Level Fort Worth Center
Tue 11:18:46 AM 33.3008 -93.5042 20° North 462 532 37,000  Level Fort Worth Center
Tue 11:20:20 AM 33.4836 -93.4178 22° Northeast 469 540 37,000  Level Kansas City Center
Tue 11:20:44 AM 33.5389 -93.3978 17° North 461 531 37,000  Level Memphis Center
Tue 11:21:45 AM 33.6550 -93.3469 20° North 461 531 37,000  Level Memphis Center
Tue 11:22:45 AM 33.7753 -93.2911 21° North 455 524 37,000  Level Memphis Center
Tue 11:23:45 AM 33.8933 -93.2400 20° North 455 524 37,000  Level Memphis Center
Tue 11:24:45 AM 34.0094 -93.1836 22° Northeast 455 524 37,000  Level Memphis Center
Tue 11:25:44 AM 34.1294 -93.1300 20° North 455 524 37,000  Level Memphis Center
Tue 11:26:45 AM 34.2497 -93.0733 21° North 455 524 37,000  Level Memphis Center
Tue 11:27:45 AM 34.3656 -93.0167 22° Northeast 455 524 37,000  Level Memphis Center
Tue 11:28:44 AM 34.4836 -92.9600 22° Northeast 455 524 37,000  Level Memphis Center
Tue 11:29:45 AM 34.6058 -92.9056 20° North 455 524 37,000  Level Memphis Center
Tue 11:30:45 AM 34.7239 -92.8486 22° Northeast 455 524 37,000  Level Memphis Center
Tue 11:31:44 AM 34.8461 -92.7914 21° North 455 524 37,000  Level Memphis Center
Tue 11:32:44 AM 34.9661 -92.7314 22° Northeast 455 524 37,000  Level Memphis Center
Tue 11:33:45 AM 35.0861 -92.6739 21° North 455 524 37,000  Level Memphis Center
Tue 11:34:44 AM 35.2208 -92.6089 22° Northeast 461 531 37,000  Level Memphis Center
Tue 11:35:44 AM 35.3428 -92.5511 21° North 461 531 37,000  Level Memphis Center
Tue 11:36:45 AM 35.4647 -92.4933 21° North 461 531 37,000  Level Memphis Center
Tue 11:37:44 AM 35.5889 -92.4350 21° North 461 531 37,000  Level Memphis Center
Tue 11:38:44 AM 35.7108 -92.3769 21° North 466 536 37,000  Level Memphis Center
Tue 11:39:45 AM 35.8347 -92.3158 22° Northeast 466 536 37,000  Level Memphis Center
Tue 11:40:44 AM 35.9564 -92.2597 20° North 466 536 37,000  Level Memphis Center
Tue 11:41:45 AM 36.0783 -92.1983 22° Northeast 466 536 37,000  Level Memphis Center
Tue 11:42:45 AM 36.2003 -92.1394 21° North 466 536 37,000  Level Memphis Center
Tue 11:43:44 AM 36.3219 -92.0803 21° North 471 542 37,000  Level Memphis Center
Tue 11:44:45 AM 36.4436 -92.0208 21° North 471 542 37,000  Level Memphis Center
Tue 11:45:45 AM 36.5486 -91.9686 22° Northeast 463 533 37,000  Level Memphis Center
Tue 11:47:12 AM 36.7406 -91.8694 22° Northeast 469 540 37,000  Level Kansas City Center
Tue 11:48:14 AM 36.8622 -91.8089 22° Northeast 470 541 37,000  Level Kansas City Center
Tue 11:49:16 AM 36.9839 -91.7508 21° North 470 541 37,000  Level Kansas City Center
Tue 11:50:18 AM 37.1047 -91.6897 22° Northeast 467 537 37,000  Level Kansas City Center
Tue 11:51:20 AM 37.2281 -91.6286 22° Northeast 471 542 37,000  Level Kansas City Center
Tue 11:52:23 AM 37.3519 -91.5639 23° Northeast 475 547 37,000  Level Kansas City Center
Tue 11:53:25 AM 37.5050 -91.5006 18° North 480 552 37,000  Level Kansas City Center
Tue 11:54:27 AM 37.6333 -91.4686 11° North 474 545 37,000  Level Kansas City Center
Tue 11:55:29 AM 37.7625 -91.4372 11° North 474 545 37,000  Level Kansas City Center
Tue 11:56:31 AM 37.8922 -91.4058 11° North 475 547 37,000  Level Kansas City Center
Tue 11:57:33 AM 38.0217 -91.3792 North 474 545 37,000  Level Kansas City Center
Tue 11:58:35 AM 38.1775 -91.3492 North 473 544 37,000  Level Kansas City Center
Tue 11:59:37 AM 38.3097 -91.3217 North 475 547 37,000  Level Kansas City Center
Tue 12:00:39 PM 38.4394 -91.2842 13° North 477 549 37,000  Level Kansas City Center
Tue 12:01:41 PM 38.5617 -91.2211 22° Northeast 475 547 37,000  Level Kansas City Center
Tue 12:02:43 PM 38.6786 -91.1394 29° Northeast 476 548 37,000  Level Kansas City Center
Tue 12:03:45 PM 38.7950 -91.0553 29° Northeast 478 550 37,000  Level Kansas City Center
Tue 12:04:47 PM 38.9106 -90.9661 31° Northeast 480 552 37,000  Level Kansas City Center
Tue 12:05:49 PM 39.0253 -90.8758 31° Northeast 481 554 37,000  Level Kansas City Center
Tue 12:06:51 PM 39.1508 -90.8078 23° Northeast 486 559 37,000  Level Kansas City Center
Tue 12:07:53 PM 39.3083 -90.7442 17° North 490 564 37,000  Level Kansas City Center
Tue 12:08:55 PM 39.4331 -90.6733 24° Northeast 490 564 37,000  Level Kansas City Center
Tue 12:09:57 PM 39.5544 -90.5889 28° Northeast 493 567 37,000 -242 Level Kansas City Center
Tue 12:10:59 PM 39.6750 -90.5033 29° Northeast 493 567 36,500 -968 Descending Kansas City Center
Tue 12:12:01 PM 39.7947 -90.4217 28° Northeast 491 565 35,000 -1,210 Descending Kansas City Center
Tue 12:13:03 PM 39.9147 -90.3361 29° Northeast 490 564 34,000 -1,548 Descending Kansas City Center
Tue 12:14:05 PM 40.0581 -90.2344 28° Northeast 489 563 31,800 -1,452 Descending Kansas City Center
Tue 12:15:07 PM 40.1761 -90.1517 28° Northeast 487 560 31,000 -387 Descending Kansas City Center
Tue 12:16:09 PM 40.2925 -90.0703 28° Northeast 481 554 31,000  Level Kansas City Center
Tue 12:17:11 PM 40.4083 -89.9872 29° Northeast 477 549 31,000  Level Kansas City Center
Tue 12:18:13 PM 40.5231 -89.9053 28° Northeast 474 545 31,000 -288 Level Kansas City Center
Tue 12:19:16 PM 40.6403 -89.8228 28° Northeast 475 547 30,400 -1,296 Descending Kansas City Center
Tue 12:20:18 PM 40.7358 -89.6597 52° Northeast 487 560 28,300 -2,613 Descending Kansas City Center
Tue 12:21:20 PM 40.7956 -89.5256 60° Northeast 464 534 25,000 -3,260 Descending Kansas City Center
Tue 12:22:25 PM 40.8622 -89.3711 60° Northeast 484 557 21,400 -3,165 Descending Chicago Center
Tue 12:23:27 PM 40.9469 -89.1914 58° Northeast 460 529 18,300 -2,516 Descending Chicago Center
Tue 12:24:29 PM 41.0289 -89.0750 47° Northeast 452 520 16,200 -2,488 Descending Chicago Center
Tue 12:25:30 PM 41.1111 -88.9567 47° Northeast 441 507 13,200 -2,585 Descending Chicago Center
Tue 12:26:32 PM 41.1919 -88.8386 48° Northeast 436 502 10,900 -1,597 Descending Chicago Center
Tue 12:27:34 PM 41.2761 -88.7125 48° Northeast 379 436 9,900 -1,306 Descending Chicago Center
Tue 12:28:36 PM 41.3381 -88.6233 47° Northeast 336 387 8,200 -1,403 Descending Chicago Center
Tue 12:29:38 PM 41.3981 -88.5364 47° Northeast 324 373 7,000 -1,065 Descending Chicago Center
Tue 12:30:40 PM 41.4364 -88.4358 63° Northeast 308 354 6,000 -774 Descending Chicago Center
Tue 12:31:42 PM 41.4700 -88.3375 65° Northeast 295 339 5,400 -484 Descending Chicago Center
Tue 12:32:44 PM 41.5044 -88.2350 66° East 298 343 5,000 -194 Descending Chicago Center
Tue 12:33:46 PM 41.5392 -88.1286 66° East 307 353 5,000  Level Chicago Center
Tue 12:34:48 PM 41.5489 -87.9936 84° East 299 344 5,000  Level Chicago Center
Tue 12:35:50 PM 41.5586 -87.8839 83° East 296 341 5,000 -242 Level Chicago Center
Tue 12:36:52 PM 41.5822 -87.7847 72° East 286 329 4,500 -823 Descending Chicago Center
Tue 12:37:54 PM 41.6078 -87.6928 70° East 273 314 3,300 -968 Descending Chicago Center
Tue 12:38:56 PM 41.6481 -87.6250 51° Northeast 266 306 2,500 -387 Descending Chicago Center
Tue 12:39:58 PM 41.7089 -87.6489 344° North 243 280 2,500 -387 Level Chicago Center
Tue 12:41:00 PM 41.7553 -87.7083 316° Northwest 208 239 1,700 -290 Descending Chicago Center
Tue 12:42:02 PM 41.8047 -87.6869 18° North 195 224 1,900 -194 Climbing Chicago Center
Tue 12:43:04 PM 41.8114 -87.7186 286° West 169 194 1,300 -387 Descending Chicago Center
Tue 12:44:06 PM 41.7883 -87.7489 224° Southwest 159 183 1,100 -194 Descending Chicago Center

Login

Don't have an account? Register now (free) for customized features, flight alerts, and more!